sensor_id;sensor_type;location;lat;lon;timestamp;temperature;humidity
29321;DHT22;16323;51.130;6.612;2023-04-25T00:02:08;18.40;68.10
29321;DHT22;16323;51.130;6.612;2023-04-25T00:04:35;18.40;67.80
29321;DHT22;16323;51.130;6.612;2023-04-25T00:07:03;18.40;67.30
29321;DHT22;16323;51.130;6.612;2023-04-25T00:09:31;18.40;67.50
29321;DHT22;16323;51.130;6.612;2023-04-25T00:11:58;18.40;67.30
29321;DHT22;16323;51.130;6.612;2023-04-25T00:14:26;18.40;67.20
29321;DHT22;16323;51.130;6.612;2023-04-25T00:16:54;18.40;66.80
29321;DHT22;16323;51.130;6.612;2023-04-25T00:19:20;18.40;66.70
29321;DHT22;16323;51.130;6.612;2023-04-25T00:21:47;18.40;66.70
29321;DHT22;16323;51.130;6.612;2023-04-25T00:24:14;18.40;66.40
29321;DHT22;16323;51.130;6.612;2023-04-25T00:26:42;18.40;66.40
29321;DHT22;16323;51.130;6.612;2023-04-25T00:29:09;18.40;66.60
29321;DHT22;16323;51.130;6.612;2023-04-25T00:31:36;18.40;66.80
29321;DHT22;16323;51.130;6.612;2023-04-25T00:34:03;18.40;67.30
29321;DHT22;16323;51.130;6.612;2023-04-25T00:36:29;18.40;67.30
29321;DHT22;16323;51.130;6.612;2023-04-25T00:38:57;18.40;67.40
29321;DHT22;16323;51.130;6.612;2023-04-25T00:41:25;18.40;67.50
29321;DHT22;16323;51.130;6.612;2023-04-25T00:43:54;18.40;67.50
29321;DHT22;16323;51.130;6.612;2023-04-25T00:46:21;18.40;67.70
29321;DHT22;16323;51.130;6.612;2023-04-25T00:48:48;18.40;67.70
29321;DHT22;16323;51.130;6.612;2023-04-25T00:51:18;18.40;67.80
29321;DHT22;16323;51.130;6.612;2023-04-25T00:53:46;18.40;67.60
29321;DHT22;16323;51.130;6.612;2023-04-25T00:56:14;18.40;67.00
29321;DHT22;16323;51.130;6.612;2023-04-25T00:58:41;18.40;66.60
29321;DHT22;16323;51.130;6.612;2023-04-25T01:01:10;18.40;66.60
29321;DHT22;16323;51.130;6.612;2023-04-25T01:03:38;18.30;66.30
29321;DHT22;16323;51.130;6.612;2023-04-25T01:06:07;18.40;66.30
29321;DHT22;16323;51.130;6.612;2023-04-25T01:08:35;18.40;66.30
29321;DHT22;16323;51.130;6.612;2023-04-25T01:11:02;18.40;66.10
29321;DHT22;16323;51.130;6.612;2023-04-25T01:13:30;18.40;66.30
29321;DHT22;16323;51.130;6.612;2023-04-25T01:15:57;18.40;66.30
29321;DHT22;16323;51.130;6.612;2023-04-25T01:18:25;18.30;65.90
29321;DHT22;16323;51.130;6.612;2023-04-25T01:20:53;18.30;65.60
29321;DHT22;16323;51.130;6.612;2023-04-25T01:23:23;18.40;66.30
29321;DHT22;16323;51.130;6.612;2023-04-25T01:25:49;18.40;66.60
29321;DHT22;16323;51.130;6.612;2023-04-25T01:28:17;18.30;66.80
29321;DHT22;16323;51.130;6.612;2023-04-25T01:30:44;18.40;67.00
29321;DHT22;16323;51.130;6.612;2023-04-25T01:33:12;18.30;67.20
29321;DHT22;16323;51.130;6.612;2023-04-25T01:35:40;18.30;67.10
29321;DHT22;16323;51.130;6.612;2023-04-25T01:38:07;18.40;67.30
29321;DHT22;16323;51.130;6.612;2023-04-25T01:40:37;18.40;67.00
29321;DHT22;16323;51.130;6.612;2023-04-25T01:43:05;18.40;67.30
29321;DHT22;16323;51.130;6.612;2023-04-25T01:45:32;18.40;67.30
29321;DHT22;16323;51.130;6.612;2023-04-25T01:47:59;18.30;66.80
29321;DHT22;16323;51.130;6.612;2023-04-25T01:50:26;18.40;66.80
29321;DHT22;16323;51.130;6.612;2023-04-25T01:52:53;18.30;66.40
29321;DHT22;16323;51.130;6.612;2023-04-25T01:55:21;18.40;66.40
29321;DHT22;16323;51.130;6.612;2023-04-25T01:57:49;18.30;66.20
29321;DHT22;16323;51.130;6.612;2023-04-25T02:00:16;18.30;66.10
29321;DHT22;16323;51.130;6.612;2023-04-25T02:02:43;18.30;66.10
29321;DHT22;16323;51.130;6.612;2023-04-25T02:05:10;18.30;66.00
29321;DHT22;16323;51.130;6.612;2023-04-25T02:07:37;18.30;65.90
29321;DHT22;16323;51.130;6.612;2023-04-25T02:10:04;18.30;67.00
29321;DHT22;16323;51.130;6.612;2023-04-25T02:12:31;18.30;65.80
29321;DHT22;16323;51.130;6.612;2023-04-25T02:14:59;18.30;66.30
29321;DHT22;16323;51.130;6.612;2023-04-25T02:17:26;18.40;66.80
29321;DHT22;16323;51.130;6.612;2023-04-25T02:19:53;18.30;66.70
29321;DHT22;16323;51.130;6.612;2023-04-25T02:22:20;18.30;66.70
29321;DHT22;16323;51.130;6.612;2023-04-25T02:24:46;18.30;67.00
29321;DHT22;16323;51.130;6.612;2023-04-25T02:27:13;18.40;67.10
29321;DHT22;16323;51.130;6.612;2023-04-25T02:29:40;18.40;67.10
29321;DHT22;16323;51.130;6.612;2023-04-25T02:32:09;18.40;67.00
29321;DHT22;16323;51.130;6.612;2023-04-25T02:34:35;18.40;67.10
29321;DHT22;16323;51.130;6.612;2023-04-25T02:37:03;18.40;66.90
29321;DHT22;16323;51.130;6.612;2023-04-25T02:39:29;18.40;66.50
29321;DHT22;16323;51.130;6.612;2023-04-25T02:41:56;18.40;66.50
29321;DHT22;16323;51.130;6.612;2023-04-25T02:44:23;18.40;66.20
29321;DHT22;16323;51.130;6.612;2023-04-25T02:46:50;18.30;66.20
29321;DHT22;16323;51.130;6.612;2023-04-25T02:49:18;18.40;66.10
29321;DHT22;16323;51.130;6.612;2023-04-25T02:51:45;18.30;66.10
29321;DHT22;16323;51.130;6.612;2023-04-25T02:54:11;18.40;66.10
29321;DHT22;16323;51.130;6.612;2023-04-25T02:56:38;18.40;66.10
29321;DHT22;16323;51.130;6.612;2023-04-25T02:59:05;18.40;66.10
29321;DHT22;16323;51.130;6.612;2023-04-25T03:01:32;18.30;66.10
29321;DHT22;16323;51.130;6.612;2023-04-25T03:03:59;18.30;67.20
29321;DHT22;16323;51.130;6.612;2023-04-25T03:06:27;18.40;66.80
29321;DHT22;16323;51.130;6.612;2023-04-25T03:08:54;18.40;66.60
29321;DHT22;16323;51.130;6.612;2023-04-25T03:11:20;18.40;66.80
29321;DHT22;16323;51.130;6.612;2023-04-25T03:13:47;18.40;66.90
29321;DHT22;16323;51.130;6.612;2023-04-25T03:16:14;18.40;66.90
29321;DHT22;16323;51.130;6.612;2023-04-25T03:18:41;18.30;67.00
29321;DHT22;16323;51.130;6.612;2023-04-25T03:21:08;18.30;66.90
29321;DHT22;16323;51.130;6.612;2023-04-25T03:23:36;18.40;68.10
29321;DHT22;16323;51.130;6.612;2023-04-25T03:26:03;18.30;67.00
29321;DHT22;16323;51.130;6.612;2023-04-25T03:28:30;18.30;66.80
29321;DHT22;16323;51.130;6.612;2023-04-25T03:30:57;18.30;66.60
29321;DHT22;16323;51.130;6.612;2023-04-25T03:33:23;18.40;66.50
29321;DHT22;16323;51.130;6.612;2023-04-25T03:35:50;18.30;66.20
29321;DHT22;16323;51.130;6.612;2023-04-25T03:38:17;18.30;66.10
29321;DHT22;16323;51.130;6.612;2023-04-25T03:40:45;18.30;65.90
29321;DHT22;16323;51.130;6.612;2023-04-25T03:43:12;18.30;65.80
29321;DHT22;16323;51.130;6.612;2023-04-25T03:45:39;18.30;65.70
29321;DHT22;16323;51.130;6.612;2023-04-25T03:48:05;18.40;65.80
29321;DHT22;16323;51.130;6.612;2023-04-25T03:50:32;18.30;65.60
29321;DHT22;16323;51.130;6.612;2023-04-25T03:52:59;18.30;65.70
29321;DHT22;16323;51.130;6.612;2023-04-25T03:55:26;18.30;66.00
29321;DHT22;16323;51.130;6.612;2023-04-25T03:57:54;18.30;66.50
29321;DHT22;16323;51.130;6.612;2023-04-25T04:00:21;18.30;66.50
29321;DHT22;16323;51.130;6.612;2023-04-25T04:02:47;18.30;66.60
29321;DHT22;16323;51.130;6.612;2023-04-25T04:05:14;18.30;66.60
29321;DHT22;16323;51.130;6.612;2023-04-25T04:07:41;18.30;66.50
29321;DHT22;16323;51.130;6.612;2023-04-25T04:10:09;18.30;66.40
29321;DHT22;16323;51.130;6.612;2023-04-25T04:12:36;18.30;66.70
29321;DHT22;16323;51.130;6.612;2023-04-25T04:15:05;18.30;66.80
29321;DHT22;16323;51.130;6.612;2023-04-25T04:17:32;18.30;66.40
29321;DHT22;16323;51.130;6.612;2023-04-25T04:19:59;18.30;66.30
29321;DHT22;16323;51.130;6.612;2023-04-25T04:22:26;18.30;66.20
29321;DHT22;16323;51.130;6.612;2023-04-25T04:24:53;18.30;65.80
29321;DHT22;16323;51.130;6.612;2023-04-25T04:27:22;18.30;65.70
29321;DHT22;16323;51.130;6.612;2023-04-25T04:29:49;18.30;65.40
29321;DHT22;16323;51.130;6.612;2023-04-25T04:32:19;18.30;65.50
29321;DHT22;16323;51.130;6.612;2023-04-25T04:34:45;18.30;65.20
29321;DHT22;16323;51.130;6.612;2023-04-25T04:37:14;18.30;65.30
29321;DHT22;16323;51.130;6.612;2023-04-25T04:39:41;18.30;65.10
29321;DHT22;16323;51.130;6.612;2023-04-25T04:42:07;18.30;65.10
29321;DHT22;16323;51.130;6.612;2023-04-25T04:44:34;18.30;65.00
29321;DHT22;16323;51.130;6.612;2023-04-25T04:47:02;18.30;65.60
29321;DHT22;16323;51.130;6.612;2023-04-25T04:49:32;18.30;65.90
29321;DHT22;16323;51.130;6.612;2023-04-25T04:51:59;18.30;66.20
29321;DHT22;16323;51.130;6.612;2023-04-25T04:54:26;18.30;65.90
29321;DHT22;16323;51.130;6.612;2023-04-25T04:56:53;18.30;66.20
29321;DHT22;16323;51.130;6.612;2023-04-25T04:59:20;18.30;66.10
29321;DHT22;16323;51.130;6.612;2023-04-25T05:01:47;18.30;66.40
29321;DHT22;16323;51.130;6.612;2023-04-25T05:04:13;18.30;66.30
29321;DHT22;16323;51.130;6.612;2023-04-25T05:06:42;18.30;66.30
29321;DHT22;16323;51.130;6.612;2023-04-25T05:09:09;18.30;65.70
29321;DHT22;16323;51.130;6.612;2023-04-25T05:11:36;18.30;64.60
29321;DHT22;16323;51.130;6.612;2023-04-25T05:14:03;18.30;64.40
29321;DHT22;16323;51.130;6.612;2023-04-25T05:16:30;18.30;64.60
29321;DHT22;16323;51.130;6.612;2023-04-25T05:18:56;18.30;64.60
29321;DHT22;16323;51.130;6.612;2023-04-25T05:21:23;18.30;64.10
29321;DHT22;16323;51.130;6.612;2023-04-25T05:23:52;18.30;63.60
29321;DHT22;16323;51.130;6.612;2023-04-25T05:26:19;18.20;63.00
29321;DHT22;16323;51.130;6.612;2023-04-25T05:28:46;18.20;62.90
29321;DHT22;16323;51.130;6.612;2023-04-25T05:31:12;18.20;62.30
29321;DHT22;16323;51.130;6.612;2023-04-25T05:33:39;18.20;62.10
29321;DHT22;16323;51.130;6.612;2023-04-25T05:36:07;18.20;62.60
29321;DHT22;16323;51.130;6.612;2023-04-25T05:38:34;18.20;63.00
29321;DHT22;16323;51.130;6.612;2023-04-25T05:41:03;18.10;63.00
29321;DHT22;16323;51.130;6.612;2023-04-25T05:43:29;18.10;62.70
29321;DHT22;16323;51.130;6.612;2023-04-25T05:45:56;18.10;62.80
29321;DHT22;16323;51.130;6.612;2023-04-25T05:48:23;18.10;62.70
29321;DHT22;16323;51.130;6.612;2023-04-25T05:50:50;18.10;62.40
29321;DHT22;16323;51.130;6.612;2023-04-25T05:53:18;18.10;62.50
29321;DHT22;16323;51.130;6.612;2023-04-25T05:55:44;18.20;62.60
29321;DHT22;16323;51.130;6.612;2023-04-25T05:58:13;18.20;62.30
29321;DHT22;16323;51.130;6.612;2023-04-25T06:00:39;18.20;62.10
29321;DHT22;16323;51.130;6.612;2023-04-25T06:03:07;18.20;62.10
29321;DHT22;16323;51.130;6.612;2023-04-25T06:05:35;18.20;62.50
29321;DHT22;16323;51.130;6.612;2023-04-25T06:08:01;18.20;62.50
29321;DHT22;16323;51.130;6.612;2023-04-25T06:10:28;18.20;62.50
29321;DHT22;16323;51.130;6.612;2023-04-25T06:12:55;18.20;62.50
29321;DHT22;16323;51.130;6.612;2023-04-25T06:15:23;18.20;62.70
29321;DHT22;16323;51.130;6.612;2023-04-25T06:17:50;18.20;62.80
29321;DHT22;16323;51.130;6.612;2023-04-25T06:20:17;18.20;62.80
29321;DHT22;16323;51.130;6.612;2023-04-25T06:22:45;18.20;62.80
29321;DHT22;16323;51.130;6.612;2023-04-25T06:25:11;18.20;62.90
29321;DHT22;16323;51.130;6.612;2023-04-25T06:27:38;18.20;63.30
29321;DHT22;16323;51.130;6.612;2023-04-25T06:30:06;18.30;63.60
29321;DHT22;16323;51.130;6.612;2023-04-25T06:32:34;18.30;63.60
29321;DHT22;16323;51.130;6.612;2023-04-25T06:35:01;18.30;63.80
29321;DHT22;16323;51.130;6.612;2023-04-25T06:37:28;18.30;63.70
29321;DHT22;16323;51.130;6.612;2023-04-25T06:39:55;18.30;63.70
29321;DHT22;16323;51.130;6.612;2023-04-25T06:42:22;18.30;63.90
29321;DHT22;16323;51.130;6.612;2023-04-25T06:44:49;18.30;63.90
29321;DHT22;16323;51.130;6.612;2023-04-25T06:47:15;18.30;64.00
29321;DHT22;16323;51.130;6.612;2023-04-25T06:49:44;18.30;63.80
29321;DHT22;16323;51.130;6.612;2023-04-25T06:52:10;18.30;63.60
29321;DHT22;16323;51.130;6.612;2023-04-25T06:54:37;18.30;63.50
29321;DHT22;16323;51.130;6.612;2023-04-25T06:57:04;18.30;63.30
29321;DHT22;16323;51.130;6.612;2023-04-25T06:59:31;18.30;63.00
29321;DHT22;16323;51.130;6.612;2023-04-25T07:01:58;18.30;63.20
29321;DHT22;16323;51.130;6.612;2023-04-25T07:04:25;18.30;63.10
29321;DHT22;16323;51.130;6.612;2023-04-25T07:06:53;18.30;63.10
29321;DHT22;16323;51.130;6.612;2023-04-25T07:09:20;18.30;63.90
29321;DHT22;16323;51.130;6.612;2023-04-25T07:11:47;18.30;62.80
29321;DHT22;16323;51.130;6.612;2023-04-25T07:14:13;18.30;62.60
29321;DHT22;16323;51.130;6.612;2023-04-25T07:16:40;18.30;62.90
29321;DHT22;16323;51.130;6.612;2023-04-25T07:19:07;18.30;63.30
29321;DHT22;16323;51.130;6.612;2023-04-25T07:21:34;18.30;63.50
29321;DHT22;16323;51.130;6.612;2023-04-25T07:24:03;18.30;63.60
29321;DHT22;16323;51.130;6.612;2023-04-25T07:26:30;18.30;63.60
29321;DHT22;16323;51.130;6.612;2023-04-25T07:28:57;18.30;63.60
29321;DHT22;16323;51.130;6.612;2023-04-25T07:31:24;18.30;63.60
29321;DHT22;16323;51.130;6.612;2023-04-25T07:33:51;18.30;63.70
29321;DHT22;16323;51.130;6.612;2023-04-25T07:36:17;18.30;63.60
29321;DHT22;16323;51.130;6.612;2023-04-25T07:38:44;18.30;63.50
29321;DHT22;16323;51.130;6.612;2023-04-25T07:41:12;18.30;63.30
29321;DHT22;16323;51.130;6.612;2023-04-25T07:43:39;18.30;63.10
29321;DHT22;16323;51.130;6.612;2023-04-25T07:46:06;18.30;63.10
29321;DHT22;16323;51.130;6.612;2023-04-25T07:48:33;18.30;62.90
29321;DHT22;16323;51.130;6.612;2023-04-25T07:50:59;18.30;62.90
29321;DHT22;16323;51.130;6.612;2023-04-25T07:53:26;18.30;62.90
29321;DHT22;16323;51.130;6.612;2023-04-25T07:55:53;18.30;63.00
29321;DHT22;16323;51.130;6.612;2023-04-25T07:58:21;18.30;62.80
29321;DHT22;16323;51.130;6.612;2023-04-25T08:00:48;18.30;62.90
29321;DHT22;16323;51.130;6.612;2023-04-25T08:03:15;18.30;62.70
29321;DHT22;16323;51.130;6.612;2023-04-25T08:05:42;18.30;62.60
29321;DHT22;16323;51.130;6.612;2023-04-25T08:08:09;18.30;63.10
29321;DHT22;16323;51.130;6.612;2023-04-25T08:10:36;18.30;63.30
29321;DHT22;16323;51.130;6.612;2023-04-25T08:13:02;18.30;63.40
29321;DHT22;16323;51.130;6.612;2023-04-25T08:15:30;18.30;63.60
29321;DHT22;16323;51.130;6.612;2023-04-25T08:17:57;18.40;63.60
29321;DHT22;16323;51.130;6.612;2023-04-25T08:20:25;18.30;63.40
29321;DHT22;16323;51.130;6.612;2023-04-25T08:22:51;18.30;63.50
29321;DHT22;16323;51.130;6.612;2023-04-25T08:25:18;18.30;63.40
29321;DHT22;16323;51.130;6.612;2023-04-25T08:27:45;18.30;63.50
29321;DHT22;16323;51.130;6.612;2023-04-25T08:30:12;18.30;63.30
29321;DHT22;16323;51.130;6.612;2023-04-25T08:32:41;18.30;63.30
29321;DHT22;16323;51.130;6.612;2023-04-25T08:35:08;18.30;63.00
29321;DHT22;16323;51.130;6.612;2023-04-25T08:37:35;18.30;62.70
29321;DHT22;16323;51.130;6.612;2023-04-25T08:40:02;18.30;62.40
29321;DHT22;16323;51.130;6.612;2023-04-25T08:42:33;18.30;62.10
29321;DHT22;16323;51.130;6.612;2023-04-25T08:45:01;18.30;62.30
29321;DHT22;16323;51.130;6.612;2023-04-25T08:47:30;18.30;62.10
29321;DHT22;16323;51.130;6.612;2023-04-25T08:49:59;18.30;61.90
29321;DHT22;16323;51.130;6.612;2023-04-25T08:52:30;18.30;61.90
29321;DHT22;16323;51.130;6.612;2023-04-25T08:55:01;18.30;61.70
29321;DHT22;16323;51.130;6.612;2023-04-25T08:57:28;18.30;61.90
29321;DHT22;16323;51.130;6.612;2023-04-25T08:59:56;18.30;62.40
29321;DHT22;16323;51.130;6.612;2023-04-25T09:02:24;18.30;62.40
29321;DHT22;16323;51.130;6.612;2023-04-25T09:04:52;18.30;62.60
29321;DHT22;16323;51.130;6.612;2023-04-25T09:07:21;18.30;62.70
29321;DHT22;16323;51.130;6.612;2023-04-25T09:09:48;18.30;62.70
29321;DHT22;16323;51.130;6.612;2023-04-25T09:12:15;18.30;62.50
29321;DHT22;16323;51.130;6.612;2023-04-25T09:14:42;18.30;62.50
29321;DHT22;16323;51.130;6.612;2023-04-25T09:17:09;18.30;62.50
29321;DHT22;16323;51.130;6.612;2023-04-25T09:19:37;18.30;62.20
29321;DHT22;16323;51.130;6.612;2023-04-25T09:22:05;18.30;62.10
29321;DHT22;16323;51.130;6.612;2023-04-25T09:24:35;18.30;62.10
29321;DHT22;16323;51.130;6.612;2023-04-25T09:27:06;18.30;62.20
29321;DHT22;16323;51.130;6.612;2023-04-25T09:29:34;18.30;61.70
29321;DHT22;16323;51.130;6.612;2023-04-25T09:32:18;18.30;61.50
29321;DHT22;16323;51.130;6.612;2023-04-25T09:34:47;18.30;61.50
29321;DHT22;16323;51.130;6.612;2023-04-25T09:37:18;18.30;61.90
29321;DHT22;16323;51.130;6.612;2023-04-25T09:39:47;18.30;62.10
29321;DHT22;16323;51.130;6.612;2023-04-25T09:42:15;18.30;61.90
29321;DHT22;16323;51.130;6.612;2023-04-25T09:44:43;18.30;61.40
29321;DHT22;16323;51.130;6.612;2023-04-25T09:47:11;18.30;61.20
29321;DHT22;16323;51.130;6.612;2023-04-25T09:49:40;18.30;61.90
29321;DHT22;16323;51.130;6.612;2023-04-25T09:52:07;18.30;62.20
29321;DHT22;16323;51.130;6.612;2023-04-25T09:54:34;18.30;62.20
29321;DHT22;16323;51.130;6.612;2023-04-25T09:57:07;18.30;62.50
29321;DHT22;16323;51.130;6.612;2023-04-25T09:59:38;18.30;62.40
29321;DHT22;16323;51.130;6.612;2023-04-25T10:02:07;18.30;62.40
29321;DHT22;16323;51.130;6.612;2023-04-25T10:04:35;18.30;62.20
29321;DHT22;16323;51.130;6.612;2023-04-25T10:07:03;18.30;62.00
29321;DHT22;16323;51.130;6.612;2023-04-25T10:09:32;18.30;62.40
29321;DHT22;16323;51.130;6.612;2023-04-25T10:12:00;18.30;61.70
29321;DHT22;16323;51.130;6.612;2023-04-25T10:14:30;18.30;62.00
29321;DHT22;16323;51.130;6.612;2023-04-25T10:16:57;18.30;61.90
29321;DHT22;16323;51.130;6.612;2023-04-25T10:19:25;18.30;61.80
29321;DHT22;16323;51.130;6.612;2023-04-25T10:21:56;18.30;61.50
29321;DHT22;16323;51.130;6.612;2023-04-25T10:24:25;18.30;61.40
29321;DHT22;16323;51.130;6.612;2023-04-25T10:26:52;18.30;61.30
29321;DHT22;16323;51.130;6.612;2023-04-25T10:29:22;18.30;61.10
29321;DHT22;16323;51.130;6.612;2023-04-25T10:31:51;18.30;61.00
29321;DHT22;16323;51.130;6.612;2023-04-25T10:34:18;18.30;60.90
29321;DHT22;16323;51.130;6.612;2023-04-25T10:36:49;18.30;60.70
29321;DHT22;16323;51.130;6.612;2023-04-25T10:39:22;18.30;60.60
29321;DHT22;16323;51.130;6.612;2023-04-25T10:41:53;18.30;61.30
29321;DHT22;16323;51.130;6.612;2023-04-25T10:44:21;18.30;61.50
29321;DHT22;16323;51.130;6.612;2023-04-25T10:46:49;18.30;61.50
29321;DHT22;16323;51.130;6.612;2023-04-25T10:49:32;18.30;61.50
29321;DHT22;16323;51.130;6.612;2023-04-25T10:52:12;18.30;61.30
29321;DHT22;16323;51.130;6.612;2023-04-25T10:54:42;18.30;61.40
29321;DHT22;16323;51.130;6.612;2023-04-25T10:57:26;18.30;62.30
29321;DHT22;16323;51.130;6.612;2023-04-25T10:59:53;18.30;61.20
29321;DHT22;16323;51.130;6.612;2023-04-25T11:02:21;18.30;60.90
29321;DHT22;16323;51.130;6.612;2023-04-25T11:04:53;18.30;60.70
29321;DHT22;16323;51.130;6.612;2023-04-25T11:07:26;18.30;60.70
29321;DHT22;16323;51.130;6.612;2023-04-25T11:09:55;18.30;60.50
29321;DHT22;16323;51.130;6.612;2023-04-25T11:12:24;18.30;60.70
29321;DHT22;16323;51.130;6.612;2023-04-25T11:14:58;18.30;60.30
29321;DHT22;16323;51.130;6.612;2023-04-25T11:17:28;18.30;60.70
29321;DHT22;16323;51.130;6.612;2023-04-25T11:19:55;18.30;60.50
29321;DHT22;16323;51.130;6.612;2023-04-25T11:22:22;18.30;60.10
29321;DHT22;16323;51.130;6.612;2023-04-25T11:24:49;18.30;60.00
29321;DHT22;16323;51.130;6.612;2023-04-25T11:27:17;18.30;59.70
29321;DHT22;16323;51.130;6.612;2023-04-25T11:29:44;18.20;59.60
29321;DHT22;16323;51.130;6.612;2023-04-25T11:32:12;18.20;60.50
29321;DHT22;16323;51.130;6.612;2023-04-25T11:34:43;18.30;60.80
29321;DHT22;16323;51.130;6.612;2023-04-25T11:37:10;18.30;60.50
29321;DHT22;16323;51.130;6.612;2023-04-25T11:39:38;18.30;60.40
29321;DHT22;16323;51.130;6.612;2023-04-25T11:42:05;18.30;60.30
29321;DHT22;16323;51.130;6.612;2023-04-25T11:44:32;18.30;60.60
29321;DHT22;16323;51.130;6.612;2023-04-25T11:46:59;18.30;60.60
29321;DHT22;16323;51.130;6.612;2023-04-25T11:49:30;18.30;60.50
29321;DHT22;16323;51.130;6.612;2023-04-25T11:51:58;18.30;60.30
29321;DHT22;16323;51.130;6.612;2023-04-25T11:54:25;18.30;60.00
29321;DHT22;16323;51.130;6.612;2023-04-25T11:56:52;18.30;60.20
29321;DHT22;16323;51.130;6.612;2023-04-25T11:59:23;18.30;60.30
29321;DHT22;16323;51.130;6.612;2023-04-25T12:01:50;18.30;59.50
29321;DHT22;16323;51.130;6.612;2023-04-25T12:04:19;18.30;59.70
29321;DHT22;16323;51.130;6.612;2023-04-25T12:06:47;18.30;59.50
29321;DHT22;16323;51.130;6.612;2023-04-25T12:09:17;18.20;59.30
29321;DHT22;16323;51.130;6.612;2023-04-25T12:11:45;18.30;59.20
29321;DHT22;16323;51.130;6.612;2023-04-25T12:14:21;18.30;58.90
29321;DHT22;16323;51.130;6.612;2023-04-25T12:16:49;18.30;58.80
29321;DHT22;16323;51.130;6.612;2023-04-25T12:19:17;18.30;59.10
29321;DHT22;16323;51.130;6.612;2023-04-25T12:21:45;18.30;59.50
29321;DHT22;16323;51.130;6.612;2023-04-25T12:24:14;18.30;59.80
29321;DHT22;16323;51.130;6.612;2023-04-25T12:26:49;18.30;59.70
29321;DHT22;16323;51.130;6.612;2023-04-25T12:29:18;18.30;59.90
29321;DHT22;16323;51.130;6.612;2023-04-25T12:31:45;18.30;60.00
29321;DHT22;16323;51.130;6.612;2023-04-25T12:34:12;18.30;59.60
29321;DHT22;16323;51.130;6.612;2023-04-25T12:36:40;18.30;59.90
29321;DHT22;16323;51.130;6.612;2023-04-25T12:39:07;18.30;59.90
29321;DHT22;16323;51.130;6.612;2023-04-25T12:41:35;18.30;59.90
29321;DHT22;16323;51.130;6.612;2023-04-25T12:44:03;18.30;59.70
29321;DHT22;16323;51.130;6.612;2023-04-25T12:46:30;18.30;59.60
29321;DHT22;16323;51.130;6.612;2023-04-25T12:48:56;18.30;59.60
29321;DHT22;16323;51.130;6.612;2023-04-25T12:51:23;18.30;60.00
29321;DHT22;16323;51.130;6.612;2023-04-25T12:53:51;18.40;60.80
29321;DHT22;16323;51.130;6.612;2023-04-25T12:56:18;18.30;60.20
29321;DHT22;16323;51.130;6.612;2023-04-25T12:58:47;18.30;59.90
29321;DHT22;16323;51.130;6.612;2023-04-25T13:01:14;18.30;59.80
29321;DHT22;16323;51.130;6.612;2023-04-25T13:03:41;18.30;59.60
29321;DHT22;16323;51.130;6.612;2023-04-25T13:06:08;18.30;60.80
29321;DHT22;16323;51.130;6.612;2023-04-25T13:08:35;18.30;59.90
29321;DHT22;16323;51.130;6.612;2023-04-25T13:11:03;18.30;59.50
29321;DHT22;16323;51.130;6.612;2023-04-25T13:13:30;18.30;59.70
29321;DHT22;16323;51.130;6.612;2023-04-25T13:16:01;18.30;59.70
29321;DHT22;16323;51.130;6.612;2023-04-25T13:18:28;18.30;59.80
29321;DHT22;16323;51.130;6.612;2023-04-25T13:20:55;18.30;59.40
29321;DHT22;16323;51.130;6.612;2023-04-25T13:23:22;18.30;58.60
29321;DHT22;16323;51.130;6.612;2023-04-25T13:25:50;18.30;58.80
29321;DHT22;16323;51.130;6.612;2023-04-25T13:28:17;18.30;58.30
29321;DHT22;16323;51.130;6.612;2023-04-25T13:30:44;18.30;58.40
29321;DHT22;16323;51.130;6.612;2023-04-25T13:33:12;18.30;57.40
29321;DHT22;16323;51.130;6.612;2023-04-25T13:35:39;18.30;57.30
29321;DHT22;16323;51.130;6.612;2023-04-25T13:38:06;18.30;57.00
29321;DHT22;16323;51.130;6.612;2023-04-25T13:40:34;18.30;56.20
29321;DHT22;16323;51.130;6.612;2023-04-25T13:43:01;18.30;56.60
29321;DHT22;16323;51.130;6.612;2023-04-25T13:45:28;18.30;56.20
29321;DHT22;16323;51.130;6.612;2023-04-25T13:47:55;18.30;56.50
29321;DHT22;16323;51.130;6.612;2023-04-25T13:50:23;18.30;56.90
29321;DHT22;16323;51.130;6.612;2023-04-25T13:52:50;18.30;57.00
29321;DHT22;16323;51.130;6.612;2023-04-25T13:55:17;18.30;56.30
29321;DHT22;16323;51.130;6.612;2023-04-25T13:57:44;18.30;56.70
29321;DHT22;16323;51.130;6.612;2023-04-25T14:00:13;18.20;56.60
29321;DHT22;16323;51.130;6.612;2023-04-25T14:02:40;18.30;58.20
29321;DHT22;16323;51.130;6.612;2023-04-25T14:05:07;18.30;56.80
29321;DHT22;16323;51.130;6.612;2023-04-25T14:07:36;18.30;57.00
29321;DHT22;16323;51.130;6.612;2023-04-25T14:10:04;18.30;57.30
29321;DHT22;16323;51.130;6.612;2023-04-25T14:12:31;18.30;56.70
29321;DHT22;16323;51.130;6.612;2023-04-25T14:14:58;18.30;56.50
29321;DHT22;16323;51.130;6.612;2023-04-25T14:17:25;18.30;57.40
29321;DHT22;16323;51.130;6.612;2023-04-25T14:19:52;18.30;57.40
29321;DHT22;16323;51.130;6.612;2023-04-25T14:22:19;18.30;57.40
29321;DHT22;16323;51.130;6.612;2023-04-25T14:24:47;18.30;57.30
29321;DHT22;16323;51.130;6.612;2023-04-25T14:27:14;18.30;57.00
29321;DHT22;16323;51.130;6.612;2023-04-25T14:29:41;18.30;57.50
29321;DHT22;16323;51.130;6.612;2023-04-25T14:32:08;18.30;57.20
29321;DHT22;16323;51.130;6.612;2023-04-25T14:34:35;18.30;57.00
29321;DHT22;16323;51.130;6.612;2023-04-25T14:37:02;18.30;64.20
29321;DHT22;16323;51.130;6.612;2023-04-25T14:39:29;18.40;63.10
29321;DHT22;16323;51.130;6.612;2023-04-25T14:41:57;18.30;62.30
29321;DHT22;16323;51.130;6.612;2023-04-25T14:44:24;18.30;60.40
29321;DHT22;16323;51.130;6.612;2023-04-25T14:46:50;18.30;59.60
29321;DHT22;16323;51.130;6.612;2023-04-25T14:49:18;18.30;61.00
29321;DHT22;16323;51.130;6.612;2023-04-25T14:51:45;18.20;60.40
29321;DHT22;16323;51.130;6.612;2023-04-25T14:54:12;18.20;60.60
29321;DHT22;16323;51.130;6.612;2023-04-25T14:56:39;18.20;61.00
29321;DHT22;16323;51.130;6.612;2023-04-25T14:59:07;18.20;61.20
29321;DHT22;16323;51.130;6.612;2023-04-25T15:01:34;18.20;61.50
29321;DHT22;16323;51.130;6.612;2023-04-25T15:04:01;18.20;62.20
29321;DHT22;16323;51.130;6.612;2023-04-25T15:06:28;18.20;61.40
29321;DHT22;16323;51.130;6.612;2023-04-25T15:08:55;18.20;61.60
29321;DHT22;16323;51.130;6.612;2023-04-25T15:11:22;18.20;62.30
29321;DHT22;16323;51.130;6.612;2023-04-25T15:13:49;18.20;62.40
29321;DHT22;16323;51.130;6.612;2023-04-25T15:16:17;18.20;62.40
29321;DHT22;16323;51.130;6.612;2023-04-25T15:18:44;18.20;62.80
29321;DHT22;16323;51.130;6.612;2023-04-25T15:21:11;18.20;62.90
29321;DHT22;16323;51.130;6.612;2023-04-25T15:23:38;18.20;62.90
29321;DHT22;16323;51.130;6.612;2023-04-25T15:26:04;18.20;63.10
29321;DHT22;16323;51.130;6.612;2023-04-25T15:28:31;18.20;63.10
29321;DHT22;16323;51.130;6.612;2023-04-25T15:30:59;18.20;63.10
29321;DHT22;16323;51.130;6.612;2023-04-25T15:33:27;18.20;63.30